Time;durP1;ratioP1;P1;durP2;ratioP2;P2;SDS_P1;SDS_P2;PMS_P1;PMS_P2;Temp;Humidity;BMP_temperature;BMP_pressure;BME280_temperature;BME280_humidity;BME280_pressure;Samples;Min_cycle;Max_cycle;Signal;HPM_P1;HPM_P2
2021/04/15 00:01:19;;;;;;;;;;;;;;;2.87;100.00;100268.78;5043176;28;20862;-93
2021/04/15 00:03:44;;;;;;;;;;;;;;;2.71;100.00;100272.72;5050411;28;19993;-93
2021/04/15 00:06:20;;;;;;;;;;;;;;;2.50;100.00;100268.91;5056176;28;19968;-93
2021/04/15 00:08:46;;;;;;;;;;;;;;;2.39;100.00;100277.97;5054059;28;19932;-93
2021/04/15 00:11:12;;;;;;;;;;;;;;;2.41;100.00;100273.78;5071223;28;19920;-94
2021/04/15 00:13:38;;;;;;;;;;;;;;;2.28;100.00;100271.81;5073251;28;20143;-93
2021/04/15 00:16:05;;;;;;;;;;;;;;;2.31;100.00;100274.44;5069786;28;19932;-93
2021/04/15 00:18:30;;;;;;;;;;;;;;;2.20;100.00;100270.78;5071008;28;19924;-93
2021/04/15 00:20:55;;;;;;;;;;;;;;;2.08;100.00;100274.78;5056527;28;19932;-93
2021/04/15 00:23:21;;;;;;;;;;;;;;;1.84;100.00;100279.28;5033176;28;19931;-93
2021/04/15 00:25:46;;;;;;;;;;;;;;;2.21;100.00;100269.97;5054320;28;19925;-93
2021/04/15 00:28:11;;;;;;;;;;;;;;;2.06;100.00;100270.47;5054790;28;19931;-93
2021/04/15 00:30:37;;;;;;;;;;;;;;;2.02;100.00;100267.00;5050487;28;19920;-93
2021/04/15 00:33:06;;;;;;;;;;;;;;;2.22;100.00;100271.69;5048490;28;19928;-92
2021/04/15 00:35:32;;;;;;;;;;;;;;;2.08;100.00;100269.69;5058465;28;20041;-92
2021/04/15 00:37:57;;;;;;;;;;;;;;;1.97;100.00;100276.22;5065279;28;19956;-93
2021/04/15 00:40:22;;;;;;;;;;;;;;;1.97;100.00;100268.59;5052403;28;20016;-93
2021/04/15 00:42:48;;;;;;;;;;;;;;;2.08;100.00;100263.75;5054179;28;19916;-92
2021/04/15 00:45:17;;;;;;;;;;;;;;;2.02;100.00;100261.06;5057842;28;19920;-93
2021/04/15 00:47:44;;;;;;;;;;;;;;;2.27;100.00;100259.94;5092662;28;19967;-94
2021/04/15 00:50:16;;;;;;;;;;;;;;;2.24;100.00;100258.19;5074665;28;19916;-93
2021/04/15 00:52:48;;;;;;;;;;;;;;;2.18;100.00;100257.19;5044794;28;19924;-93
2021/04/15 00:55:14;;;;;;;;;;;;;;;2.06;100.00;100266.25;5045123;28;19940;-93
2021/04/15 00:57:40;;;;;;;;;;;;;;;2.12;100.00;100259.59;5055706;28;20658;-93
2021/04/15 01:00:09;;;;;;;;;;;;;;;1.96;100.00;100258.38;5074917;28;19924;-93
2021/04/15 01:02:35;;;;;;;;;;;;;;;1.64;100.00;100261.91;5043383;28;19927;-93
2021/04/15 01:05:02;;;;;;;;;;;;;;;1.65;100.00;100260.22;5073348;28;19925;-93
2021/04/15 01:07:28;;;;;;;;;;;;;;;1.73;100.00;100263.78;5036206;28;19930;-93
2021/04/15 01:09:55;;;;;;;;;;;;;;;1.70;100.00;100261.16;5049890;28;19928;-93
2021/04/15 01:12:32;;;;;;;;;;;;;;;1.80;100.00;100254.63;5046006;28;19917;-93
2021/04/15 01:14:59;;;;;;;;;;;;;;;1.64;100.00;100253.41;5071880;28;19920;-92
2021/04/15 01:17:43;;;;;;;;;;;;;;;1.48;100.00;100249.63;5063568;28;20340;-94
2021/04/15 01:20:28;;;;;;;;;;;;;;;1.45;100.00;100250.41;5068224;28;19921;-92
2021/04/15 01:23:01;;;;;;;;;;;;;;;1.31;100.00;100250.91;5063111;28;20051;-93
2021/04/15 01:25:26;;;;;;;;;;;;;;;1.49;100.00;100245.44;5073000;28;19921;-94
2021/04/15 01:27:58;;;;;;;;;;;;;;;1.40;100.00;100251.97;5056081;28;20205;-93
2021/04/15 01:30:29;;;;;;;;;;;;;;;1.59;100.00;100253.28;5073568;28;19924;-92
2021/04/15 01:33:03;;;;;;;;;;;;;;;1.53;100.00;100249.72;5071893;28;19928;-93
2021/04/15 01:35:39;;;;;;;;;;;;;;;1.49;100.00;100253.03;5047028;28;19931;-93
2021/04/15 01:38:34;;;;;;;;;;;;;;;1.21;100.00;100257.44;5050133;28;20320;-93
2021/04/15 01:41:06;;;;;;;;;;;;;;;1.34;100.00;100259.44;5050425;28;20274;-92
2021/04/15 01:43:34;;;;;;;;;;;;;;;1.53;100.00;100254.81;5047332;28;19920;-93
2021/04/15 01:45:59;;;;;;;;;;;;;;;1.75;100.00;100258.75;5076857;28;19920;-93
2021/04/15 01:48:30;;;;;;;;;;;;;;;1.60;100.00;100254.16;5050546;28;19927;-93
2021/04/15 01:51:00;;;;;;;;;;;;;;;1.33;100.00;100255.19;5042427;28;19924;-93
2021/04/15 01:53:33;;;;;;;;;;;;;;;1.42;100.00;100257.09;5033787;28;19983;-93
2021/04/15 01:56:06;;;;;;;;;;;;;;;1.51;100.00;100256.47;5072418;28;19924;-94
2021/04/15 01:58:45;;;;;;;;;;;;;;;1.28;100.00;100253.34;5054201;28;19925;-94
2021/04/15 02:01:18;;;;;;;;;;;;;;;1.10;100.00;100251.22;5044155;28;19931;-93
2021/04/15 02:03:44;;;;;;;;;;;;;;;1.01;100.00;100257.75;5075151;28;19998;-93
2021/04/15 02:06:11;;;;;;;;;;;;;;;1.19;100.00;100256.53;5071218;28;20387;-93
2021/04/15 02:08:40;;;;;;;;;;;;;;;1.35;100.00;100252.69;5076477;28;20292;-93
2021/04/15 02:11:07;;;;;;;;;;;;;;;1.33;100.00;100259.41;5073177;28;19940;-93
2021/04/15 02:13:33;;;;;;;;;;;;;;;1.10;100.00;100252.06;5045333;28;19920;-93
2021/04/15 02:15:59;;;;;;;;;;;;;;;1.33;100.00;100251.81;5052986;28;19944;-93
2021/04/15 02:18:25;;;;;;;;;;;;;;;1.39;100.00;100254.47;5058344;28;20358;-93
2021/04/15 02:20:51;;;;;;;;;;;;;;;0.99;100.00;100253.44;5060333;28;20486;-93
2021/04/15 02:23:19;;;;;;;;;;;;;;;1.04;100.00;100251.88;5046808;28;19933;-93
2021/04/15 02:25:47;;;;;;;;;;;;;;;1.24;100.00;100253.28;5051628;28;20056;-93
2021/04/15 02:28:15;;;;;;;;;;;;;;;1.30;100.00;100251.69;5058290;28;20062;-93
2021/04/15 02:30:43;;;;;;;;;;;;;;;1.37;100.00;100257.00;5071208;28;19931;-93
2021/04/15 02:33:25;;;;;;;;;;;;;;;1.39;100.00;100257.91;5074619;28;19923;-93
2021/04/15 02:35:52;;;;;;;;;;;;;;;1.14;100.00;100253.88;5075753;28;20017;-94
2021/04/15 02:38:18;;;;;;;;;;;;;;;1.40;100.00;100251.13;5047944;28;19924;-92
2021/04/15 02:40:53;;;;;;;;;;;;;;;1.30;100.00;100251.69;5074712;28;20031;-93
2021/04/15 02:43:22;;;;;;;;;;;;;;;1.22;100.00;100252.38;5059026;28;19940;-93
2021/04/15 02:45:49;;;;;;;;;;;;;;;1.23;100.00;100261.72;5057376;28;19931;-94
2021/04/15 02:48:23;;;;;;;;;;;;;;;0.90;100.00;100253.19;5060116;28;19924;-94
2021/04/15 02:50:48;;;;;;;;;;;;;;;0.88;100.00;100264.97;5077330;28;19963;-93
2021/04/15 02:53:18;;;;;;;;;;;;;;;0.75;100.00;100254.50;5074912;28;20657;-93
2021/04/15 02:55:46;;;;;;;;;;;;;;;0.62;100.00;100252.44;5080193;28;19932;-93
2021/04/15 02:58:22;;;;;;;;;;;;;;;0.59;100.00;100258.28;5079090;28;19924;-94
2021/04/15 03:00:49;;;;;;;;;;;;;;;0.46;100.00;100255.34;5062185;28;19928;-93
2021/04/15 03:03:15;;;;;;;;;;;;;;;0.31;100.00;100261.69;5079487;28;20047;-93
2021/04/15 03:05:44;;;;;;;;;;;;;;;0.35;100.00;100257.56;5062160;28;20591;-92
2021/04/15 03:08:10;;;;;;;;;;;;;;;0.25;100.00;100265.69;5062965;28;19925;-93
2021/04/15 03:10:37;;;;;;;;;;;;;;;0.26;100.00;100257.31;5059067;28;20373;-94
2021/04/15 03:13:22;;;;;;;;;;;;;;;0.14;100.00;100267.94;5065932;28;20250;-93
2021/04/15 03:15:49;;;;;;;;;;;;;;;0.15;100.00;100262.03;5065152;28;20403;-92
2021/04/15 03:18:35;;;;;;;;;;;;;;;0.18;100.00;100257.06;5081762;28;19923;-92
2021/04/15 03:21:02;;;;;;;;;;;;;;;0.40;100.00;100256.03;5068146;28;19931;-93
2021/04/15 03:23:33;;;;;;;;;;;;;;;0.38;100.00;100255.97;5060088;28;20013;-92
2021/04/15 03:25:58;;;;;;;;;;;;;;;0.46;100.00;100255.34;5082169;28;20013;-93
2021/04/15 03:28:28;;;;;;;;;;;;;;;0.52;100.00;100255.53;5063858;28;20710;-93
2021/04/15 03:30:54;;;;;;;;;;;;;;;0.56;100.00;100257.34;5053231;28;20455;-92
2021/04/15 03:33:21;;;;;;;;;;;;;;;0.44;100.00;100262.06;5089072;28;19967;-94
2021/04/15 03:35:57;;;;;;;;;;;;;;;0.52;100.00;100260.59;5073401;28;19928;-93
2021/04/15 03:38:33;;;;;;;;;;;;;;;0.52;100.00;100260.59;5069837;28;19928;-92
2021/04/15 03:41:06;;;;;;;;;;;;;;;0.59;100.00;100262.47;5053424;28;20035;-94
2021/04/15 03:43:32;;;;;;;;;;;;;;;0.47;100.00;100257.06;5069093;28;19925;-92
2021/04/15 03:46:05;;;;;;;;;;;;;;;0.31;100.00;100261.69;5081260;28;19963;-93
2021/04/15 03:48:39;;;;;;;;;;;;;;;0.65;100.00;100265.19;5095430;28;20444;-92
2021/04/15 03:51:06;;;;;;;;;;;;;;;0.74;100.00;100262.91;5062510;28;19920;-91
2021/04/15 03:53:33;;;;;;;;;;;;;;;0.80;100.00;100259.72;5057061;28;19927;-91
2021/04/15 03:55:59;;;;;;;;;;;;;;;0.65;100.00;100256.75;5041749;28;20007;-92
2021/04/15 03:58:27;;;;;;;;;;;;;;;0.26;100.00;100260.69;5056862;28;19924;-91
2021/04/15 04:00:53;;;;;;;;;;;;;;;0.49;100.00;100263.03;5073395;28;20019;-91
2021/04/15 04:03:19;;;;;;;;;;;;;;;0.41;100.00;100263.69;5073929;28;19973;-91
2021/04/15 04:05:48;;;;;;;;;;;;;;;0.25;100.00;100263.16;5100481;28;19981;-92
2021/04/15 04:08:36;;;;;;;;;;;;;;;-0.08;100.00;100267.25;5059843;28;19928;-88
2021/04/15 04:11:01;;;;;;;;;;;;;;;-0.10;100.00;100268.88;5057165;28;19924;-91
2021/04/15 04:13:31;;;;;;;;;;;;;;;-0.17;100.00;100271.19;5056918;28;19931;-88
2021/04/15 04:15:58;;;;;;;;;;;;;;;-0.09;100.00;100272.25;5072044;28;20398;-89
2021/04/15 04:18:27;;;;;;;;;;;;;;;0.15;100.00;100272.19;5073139;28;19924;-88
2021/04/15 04:21:05;;;;;;;;;;;;;;;0.06;100.00;100276.97;5058286;28;20465;-88
2021/04/15 04:23:39;;;;;;;;;;;;;;;-0.07;100.00;100271.53;5057796;28;19924;-90
2021/04/15 04:26:08;;;;;;;;;;;;;;;-0.12;100.00;100278.09;5073519;28;19974;-90
2021/04/15 04:28:35;;;;;;;;;;;;;;;0.05;100.00;100280.31;5056149;28;20485;-89
2021/04/15 04:31:03;;;;;;;;;;;;;;;0.10;100.00;100281.31;5071790;28;19920;-89
2021/04/15 04:33:36;;;;;;;;;;;;;;;-0.02;100.00;100282.66;5043910;28;19970;-89
2021/04/15 04:36:01;;;;;;;;;;;;;;;-0.23;100.00;100281.94;5056992;28;20023;-89
2021/04/15 04:38:26;;;;;;;;;;;;;;;-0.14;100.00;100289.00;5046444;28;20447;-89
2021/04/15 04:40:59;;;;;;;;;;;;;;;-0.37;100.00;100293.31;5056719;28;19920;-89
2021/04/15 04:43:29;;;;;;;;;;;;;;;-0.54;100.00;100296.16;5049515;28;19932;-89
2021/04/15 04:45:57;;;;;;;;;;;;;;;-0.47;100.00;100297.22;5040718;28;19928;-89
2021/04/15 04:48:23;;;;;;;;;;;;;;;-0.37;100.00;100298.38;5041495;28;20418;-88
2021/04/15 04:50:50;;;;;;;;;;;;;;;-0.17;100.00;100297.34;5058154;28;19923;-89
2021/04/15 04:53:26;;;;;;;;;;;;;;;0.11;100.00;100299.06;5043612;28;19928;-90
2021/04/15 04:55:57;;;;;;;;;;;;;;;0.18;100.00;100301.00;5072272;28;20526;-87
2021/04/15 04:58:23;;;;;;;;;;;;;;;0.16;100.00;100300.09;5054937;28;19928;-89
2021/04/15 05:00:52;;;;;;;;;;;;;;;0.23;100.00;100297.72;5057893;28;19924;-89
2021/04/15 05:03:21;;;;;;;;;;;;;;;0.30;100.00;100305.59;5074223;28;19917;-90
2021/04/15 05:05:46;;;;;;;;;;;;;;;0.26;100.00;100298.69;5056441;28;19924;-87
2021/04/15 05:08:15;;;;;;;;;;;;;;;0.27;100.00;100302.09;5087312;28;19927;-93
2021/04/15 05:10:40;;;;;;;;;;;;;;;0.33;100.00;100305.66;5095569;28;19946;-93
2021/04/15 05:13:14;;;;;;;;;;;;;;;0.17;100.00;100308.56;5056976;28;19920;-91
2021/04/15 05:15:39;;;;;;;;;;;;;;;0.11;100.00;100311.72;5035251;28;19939;-90
2021/04/15 05:18:05;;;;;;;;;;;;;;;0.07;100.00;100317.53;5059349;28;19916;-91
2021/04/15 05:20:30;;;;;;;;;;;;;;;0.01;100.00;100317.34;5073829;28;20376;-92
2021/04/15 05:23:02;;;;;;;;;;;;;;;0.19;100.00;100312.84;5063795;28;19921;-92
2021/04/15 05:25:27;;;;;;;;;;;;;;;0.44;100.00;100317.81;5090594;28;20098;-87
2021/04/15 05:27:53;;;;;;;;;;;;;;;0.66;100.00;100322.69;5054250;28;20380;-88
2021/04/15 05:30:40;;;;;;;;;;;;;;;0.91;100.00;100320.84;5048101;28;19928;-92
2021/04/15 05:33:06;;;;;;;;;;;;;;;0.87;100.00;100324.09;5050337;28;19955;-89
2021/04/15 05:35:33;;;;;;;;;;;;;;;0.58;100.00;100331.75;5052270;28;19974;-91
2021/04/15 05:37:59;;;;;;;;;;;;;;;0.35;100.00;100331.91;5056810;28;20061;-91
2021/04/15 05:40:24;;;;;;;;;;;;;;;0.40;100.00;100329.53;5049898;28;20399;-88
2021/04/15 05:42:52;;;;;;;;;;;;;;;0.61;100.00;100336.91;5047248;28;19952;-89
2021/04/15 05:45:18;;;;;;;;;;;;;;;0.73;100.00;100332.22;5054846;28;20017;-90
2021/04/15 05:47:44;;;;;;;;;;;;;;;0.86;100.00;100328.31;5050587;28;20006;-90
2021/04/15 05:50:15;;;;;;;;;;;;;;;0.96;100.00;100330.31;5059628;28;19963;-89
2021/04/15 05:52:41;;;;;;;;;;;;;;;1.01;100.00;100328.78;5072670;28;19920;-89
2021/04/15 05:55:12;;;;;;;;;;;;;;;0.88;100.00;100336.84;5039688;28;19924;-89
2021/04/15 05:57:39;;;;;;;;;;;;;;;0.52;100.00;100341.69;5089881;28;19924;-89
2021/04/15 06:00:08;;;;;;;;;;;;;;;0.47;100.00;100338.16;5072288;28;19921;-91
2021/04/15 06:02:36;;;;;;;;;;;;;;;0.82;100.00;100339.19;5047624;28;19928;-90
2021/04/15 06:05:22;;;;;;;;;;;;;;;0.88;100.00;100333.47;5073103;28;19947;-91
2021/04/15 06:07:48;;;;;;;;;;;;;;;0.90;100.00;100334.38;5041199;28;19944;-91
2021/04/15 06:10:14;;;;;;;;;;;;;;;0.79;100.00;100342.50;5048268;28;20027;-89
2021/04/15 06:13:00;;;;;;;;;;;;;;;1.00;100.00;100341.41;5055164;28;19924;-90
2021/04/15 06:15:32;;;;;;;;;;;;;;;1.06;100.00;100343.25;5055691;28;19921;-90
2021/04/15 06:18:19;;;;;;;;;;;;;;;1.01;100.00;100343.13;5071968;28;19972;-91
2021/04/15 06:20:45;;;;;;;;;;;;;;;1.28;100.00;100342.16;5047042;28;19931;-89
2021/04/15 06:23:31;;;;;;;;;;;;;;;1.61;100.00;100345.59;5052803;28;19928;-90
2021/04/15 06:25:56;;;;;;;;;;;;;;;1.96;100.00;100345.63;5053319;28;20120;-89
2021/04/15 06:28:29;;;;;;;;;;;;;;;2.11;100.00;100341.75;5055267;28;20346;-89
2021/04/15 06:31:15;;;;;;;;;;;;;;;2.00;100.00;100342.31;5057102;28;19924;-91
2021/04/15 06:33:41;;;;;;;;;;;;;;;2.37;100.00;100340.63;5071891;28;19955;-91
2021/04/15 06:36:09;;;;;;;;;;;;;;;2.32;100.00;100349.84;5070873;28;20442;-90
2021/04/15 06:38:44;;;;;;;;;;;;;;;2.40;100.00;100343.28;5055875;28;20027;-89
2021/04/15 06:41:19;;;;;;;;;;;;;;;2.53;100.00;100338.44;5030175;28;19980;-89
2021/04/15 06:44:00;;;;;;;;;;;;;;;2.51;100.00;100341.84;5074561;28;19925;-91
2021/04/15 06:46:34;;;;;;;;;;;;;;;2.64;100.00;100342.09;5075678;28;19920;-90
2021/04/15 06:48:59;;;;;;;;;;;;;;;3.03;100.00;100341.19;5041212;28;19931;-89
2021/04/15 06:51:44;;;;;;;;;;;;;;;2.92;100.00;100338.47;5059647;28;19925;-93
2021/04/15 06:54:15;;;;;;;;;;;;;;;3.31;100.00;100333.28;5076058;28;19921;-91
2021/04/15 06:56:41;;;;;;;;;;;;;;;3.84;100.00;100326.56;5075298;28;20313;-92
2021/04/15 06:59:25;;;;;;;;;;;;;;;3.29;100.00;100334.94;5060221;28;19925;-93
2021/04/15 07:01:56;;;;;;;;;;;;;;;3.45;100.00;100335.22;5078065;28;19935;-92
2021/04/15 07:04:25;;;;;;;;;;;;;;;3.74;100.00;100338.28;5076449;28;19920;-93
2021/04/15 07:07:06;;;;;;;;;;;;;;;3.49;100.00;100335.31;5058012;28;19927;-92
2021/04/15 07:09:48;;;;;;;;;;;;;;;3.92;100.00;100337.72;5060554;28;19920;-90
2021/04/15 07:12:33;;;;;;;;;;;;;;;4.08;100.00;100337.16;5046047;28;19920;-92
2021/04/15 07:15:17;;;;;;;;;;;;;;;3.92;100.00;100328.41;5059854;28;19920;-91
2021/04/15 07:18:02;;;;;;;;;;;;;;;4.11;100.00;100329.56;5078777;28;19921;-92
2021/04/15 07:20:34;;;;;;;;;;;;;;;3.81;100.00;100340.13;5061420;28;19986;-92
2021/04/15 07:23:11;;;;;;;;;;;;;;;4.14;100.00;100334.69;5074810;28;19923;-92
2021/04/15 07:25:56;;;;;;;;;;;;;;;4.41;100.00;100330.84;5077988;28;19924;-92
2021/04/15 07:28:41;;;;;;;;;;;;;;;3.58;100.00;100344.81;5060635;28;19920;-91
2021/04/15 07:31:09;;;;;;;;;;;;;;;4.45;100.00;100339.38;5056634;28;19932;-91
2021/04/15 07:33:53;;;;;;;;;;;;;;;3.65;100.00;100348.31;5074371;28;20443;-92
2021/04/15 07:36:34;;;;;;;;;;;;;;;2.72;100.00;100353.28;5076240;28;19967;-92
2021/04/15 07:39:06;;;;;;;;;;;;;;;3.12;100.00;100361.75;5075973;28;19921;-91
2021/04/15 07:41:40;;;;;;;;;;;;;;;3.54;100.00;100360.88;5056260;28;20065;-91
2021/04/15 07:44:16;;;;;;;;;;;;;;;4.56;100.00;100354.03;5077347;28;19925;-91
2021/04/15 07:46:57;;;;;;;;;;;;;;;3.90;100.00;100355.56;5060394;28;19924;-90
2021/04/15 07:49:25;;;;;;;;;;;;;;;4.38;100.00;100363.97;5063011;28;19924;-91
2021/04/15 07:52:21;;;;;;;;;;;;;;;4.35;100.00;100366.44;5066346;28;19935;-93
2021/04/15 07:54:58;;;;;;;;;;;;;;;3.98;100.00;100374.38;5053917;28;19920;-92
2021/04/15 07:57:30;;;;;;;;;;;;;;;4.68;100.00;100372.91;5061703;28;19929;-92
2021/04/15 08:00:20;;;;;;;;;;;;;;;4.32;100.00;100379.16;5059955;28;19977;-92
2021/04/15 08:03:04;;;;;;;;;;;;;;;3.76;100.00;100382.47;5064250;28;20375;-93
2021/04/15 08:05:51;;;;;;;;;;;;;;;4.17;100.00;100369.56;5054514;28;19961;-93
2021/04/15 08:08:26;;;;;;;;;;;;;;;4.06;100.00;100388.94;5057441;28;20278;-92
2021/04/15 08:11:08;;;;;;;;;;;;;;;3.70;100.00;100387.47;5073578;28;19921;-94
2021/04/15 08:14:09;;;;;;;;;;;;;;;4.38;100.00;100381.81;5073768;28;20028;-93
2021/04/15 08:16:54;;;;;;;;;;;;;;;4.21;100.00;100384.09;5039452;28;20430;-93
2021/04/15 08:19:20;;;;;;;;;;;;;;;4.72;100.00;100380.63;5056962;28;20327;-92
2021/04/15 08:21:51;;;;;;;;;;;;;;;3.73;100.00;100393.47;5061261;28;19928;-92
2021/04/15 08:24:36;;;;;;;;;;;;;;;4.22;100.00;100397.69;5056388;28;19920;-91
2021/04/15 08:27:01;;;;;;;;;;;;;;;5.22;100.00;100387.19;5057634;28;19920;-91
2021/04/15 08:30:01;;;;;;;;;;;;;;;5.83;100.00;100392.97;5060613;28;19931;-91
2021/04/15 08:32:35;;;;;;;;;;;;;;;5.59;100.00;100398.72;5045279;28;19939;-92
2021/04/15 08:35:07;;;;;;;;;;;;;;;5.25;100.00;100397.47;5076241;28;19927;-92
2021/04/15 08:37:37;;;;;;;;;;;;;;;5.14;100.00;100399.88;5078646;28;19932;-93
2021/04/15 08:40:27;;;;;;;;;;;;;;;4.30;100.00;100401.22;5078441;28;19958;-92
2021/04/15 08:42:56;;;;;;;;;;;;;;;4.83;100.00;100408.81;5059343;28;19931;-91
2021/04/15 08:45:34;;;;;;;;;;;;;;;5.90;100.00;100406.66;5090271;28;19921;-91
2021/04/15 08:48:00;;;;;;;;;;;;;;;5.50;100.00;100400.31;5038028;28;19931;-94
2021/04/15 08:50:44;;;;;;;;;;;;;;;6.75;100.00;100404.81;5052133;28;20817;-92
2021/04/15 08:53:31;;;;;;;;;;;;;;;6.83;98.19;100403.16;5058317;28;20438;-91
2021/04/15 08:56:26;;;;;;;;;;;;;;;8.02;98.43;100404.41;5078023;28;19974;-92
2021/04/15 08:59:07;;;;;;;;;;;;;;;7.72;99.60;100406.06;5068760;28;19924;-94
2021/04/15 09:01:51;;;;;;;;;;;;;;;7.51;100.00;100402.59;5058033;28;20361;-92
2021/04/15 09:04:25;;;;;;;;;;;;;;;5.40;99.87;100412.09;5050459;28;19966;-92
2021/04/15 09:06:53;;;;;;;;;;;;;;;6.32;100.00;100407.06;5033362;28;19924;-94
2021/04/15 09:09:42;;;;;;;;;;;;;;;5.91;100.00;100410.06;5059707;28;20013;-92
2021/04/15 09:12:18;;;;;;;;;;;;;;;6.08;99.33;100408.56;5055509;28;19924;-93
2021/04/15 09:14:59;;;;;;;;;;;;;;;6.47;98.28;100404.63;5055482;28;20802;-92
2021/04/15 09:17:42;;;;;;;;;;;;;;;5.72;97.10;100409.91;5077175;28;19920;-92
2021/04/15 09:20:08;;;;;;;;;;;;;;;6.03;98.69;100403.44;5060462;28;19924;-92
2021/04/15 09:22:37;;;;;;;;;;;;;;;5.63;97.52;100404.69;5057656;28;20078;-94
2021/04/15 09:25:09;;;;;;;;;;;;;;;5.26;99.62;100413.66;5059568;28;19924;-93
2021/04/15 09:27:46;;;;;;;;;;;;;;;5.96;98.27;100409.34;5054748;28;19928;-92
2021/04/15 09:30:12;;;;;;;;;;;;;;;5.58;99.06;100406.34;5076327;28;19921;-92
2021/04/15 09:32:46;;;;;;;;;;;;;;;5.81;98.82;100406.59;5059738;28;19928;-92
2021/04/15 09:35:13;;;;;;;;;;;;;;;6.49;98.25;100400.38;5046013;28;19921;-92
2021/04/15 09:37:42;;;;;;;;;;;;;;;6.57;96.02;100393.63;5055374;28;19921;-93
2021/04/15 09:40:08;;;;;;;;;;;;;;;7.25;95.91;100399.09;5071725;28;19966;-95
2021/04/15 09:42:49;;;;;;;;;;;;;;;6.47;95.92;100405.47;5059929;28;20042;-93
2021/04/15 09:45:21;;;;;;;;;;;;;;;5.87;95.23;100409.22;5070983;28;20027;-93
2021/04/15 09:48:18;;;;;;;;;;;;;;;6.61;93.55;100408.13;5042855;28;19955;-92
2021/04/15 09:50:44;;;;;;;;;;;;;;;6.91;93.85;100396.34;5040367;28;19924;-91
2021/04/15 09:53:42;;;;;;;;;;;;;;;6.16;93.89;100406.06;5062382;28;19947;-93
2021/04/15 09:56:30;;;;;;;;;;;;;;;6.55;95.20;100392.75;5048901;28;19921;-92
2021/04/15 09:59:02;;;;;;;;;;;;;;;6.55;94.73;100389.34;5070230;28;19925;-92
2021/04/15 10:01:44;;;;;;;;;;;;;;;7.29;92.55;100391.41;5066144;28;19969;-93
2021/04/15 10:04:12;;;;;;;;;;;;;;;8.13;91.78;100388.16;5079421;28;19927;-92
2021/04/15 10:06:38;;;;;;;;;;;;;;;7.85;86.38;100392.44;5086551;28;19921;-92
2021/04/15 10:09:05;;;;;;;;;;;;;;;8.91;88.50;100384.66;5041939;28;19968;-91
2021/04/15 10:11:52;;;;;;;;;;;;;;;8.54;86.99;100389.03;5056191;28;19924;-93
2021/04/15 10:14:36;;;;;;;;;;;;;;;9.36;86.21;100387.06;5065405;28;19967;-92
2021/04/15 10:17:17;;;;;;;;;;;;;;;8.63;83.92;100389.03;5088133;28;19921;-93
2021/04/15 10:19:53;;;;;;;;;;;;;;;7.21;84.77;100387.13;5066068;28;19982;-93
2021/04/15 10:22:38;;;;;;;;;;;;;;;8.38;85.39;100388.16;5076636;28;19928;-93
2021/04/15 10:25:26;;;;;;;;;;;;;;;8.11;82.55;100381.31;5062986;28;19932;-94
2021/04/15 10:28:10;;;;;;;;;;;;;;;7.69;81.68;100377.88;5051259;28;19959;-93
2021/04/15 10:30:41;;;;;;;;;;;;;;;10.04;78.73;100370.34;5061218;28;19927;-93
2021/04/15 10:33:25;;;;;;;;;;;;;;;9.83;72.18;100370.53;5063494;28;19927;-92
2021/04/15 10:36:09;;;;;;;;;;;;;;;10.42;72.38;100364.06;5061768;28;19917;-93
2021/04/15 10:38:45;;;;;;;;;;;;;;;10.93;69.78;100360.09;5080819;28;19952;-92
2021/04/15 10:41:10;;;;;;;;;;;;;;;10.65;69.90;100356.09;5063034;28;19921;-94
2021/04/15 10:43:56;;;;;;;;;;;;;;;9.77;65.91;100360.25;5096967;28;20019;-95
2021/04/15 10:46:24;;;;;;;;;;;;;;;9.17;68.94;100366.59;5051032;28;19920;-92
2021/04/15 10:49:09;;;;;;;;;;;;;;;8.66;68.40;100363.31;5080266;28;19916;-93
2021/04/15 10:51:36;;;;;;;;;;;;;;;10.27;68.50;100353.88;5076696;28;19920;-93
2021/04/15 10:54:03;;;;;;;;;;;;;;;10.55;67.86;100351.06;5039114;28;20033;-93
2021/04/15 10:56:30;;;;;;;;;;;;;;;9.28;68.76;100355.41;5063823;28;19920;-92
2021/04/15 10:59:01;;;;;;;;;;;;;;;11.80;69.70;100355.50;5036550;28;19979;-91
2021/04/15 11:01:32;;;;;;;;;;;;;;;11.29;62.68;100354.47;5064749;28;19928;-92
2021/04/15 11:04:00;;;;;;;;;;;;;;;10.68;62.41;100352.63;5060036;28;19943;-92
2021/04/15 11:06:33;;;;;;;;;;;;;;;10.10;62.11;100353.16;5088098;28;19964;-93
2021/04/15 11:09:22;;;;;;;;;;;;;;;9.53;62.68;100348.41;5065236;28;20022;-93
2021/04/15 11:12:06;;;;;;;;;;;;;;;10.09;61.45;100351.44;5072529;28;19931;-91
2021/04/15 11:14:39;;;;;;;;;;;;;;;10.94;64.50;100341.16;5082763;28;19916;-91
2021/04/15 11:17:25;;;;;;;;;;;;;;;11.04;61.77;100342.78;5058620;28;19917;-92
2021/04/15 11:20:06;;;;;;;;;;;;;;;10.40;57.49;100340.03;5060616;28;19928;-92
2021/04/15 11:22:32;;;;;;;;;;;;;;;11.40;57.05;100343.16;5061244;28;19936;-92
2021/04/15 11:25:33;;;;;;;;;;;;;;;11.37;54.21;100336.31;5088542;28;20051;-92
2021/04/15 11:30:50;;;;;;;;;;;;;;;9.61;54.71;100336.38;5061314;28;19924;-94
2021/04/15 11:33:34;;;;;;;;;;;;;;;9.29;51.68;100336.56;5045454;28;19920;-94
2021/04/15 11:36:18;;;;;;;;;;;;;;;9.96;53.55;100325.78;5094379;28;19920;-93
2021/04/15 11:38:45;;;;;;;;;;;;;;;10.82;57.35;100322.41;5063010;28;19924;-94
2021/04/15 11:41:24;;;;;;;;;;;;;;;10.21;49.73;100315.28;5052577;28;19932;-95
2021/04/15 11:43:50;;;;;;;;;;;;;;;10.57;50.64;100313.25;5084729;28;19916;-93
2021/04/15 11:46:33;;;;;;;;;;;;;;;11.56;50.87;100305.09;5057324;28;19943;-95
2021/04/15 11:49:05;;;;;;;;;;;;;;;12.09;51.32;100304.25;5049647;28;19927;-92
2021/04/15 11:51:51;;;;;;;;;;;;;;;12.94;49.25;100298.31;5065488;28;20024;-93
2021/04/15 11:54:33;;;;;;;;;;;;;;;11.92;55.23;100304.53;5084384;28;20016;-94
2021/04/15 11:57:01;;;;;;;;;;;;;;;11.51;51.55;100312.91;5061391;28;19979;-94
2021/04/15 11:59:29;;;;;;;;;;;;;;;11.30;49.86;100309.75;5068946;28;19932;-94
2021/04/15 12:02:15;;;;;;;;;;;;;;;11.00;45.27;100305.03;5088193;28;19931;-93
2021/04/15 12:04:43;;;;;;;;;;;;;;;12.19;45.09;100301.53;5090944;28;19916;-94
2021/04/15 12:07:17;;;;;;;;;;;;;;;9.86;45.78;100316.47;5062885;28;19921;-94
2021/04/15 12:09:43;;;;;;;;;;;;;;;11.14;47.72;100308.25;5053447;28;20130;-93
2021/04/15 12:12:12;;;;;;;;;;;;;;;12.01;47.74;100300.94;5067935;28;20397;-93
2021/04/15 12:14:37;;;;;;;;;;;;;;;12.27;50.81;100290.19;5099856;28;20061;-94
2021/04/15 12:17:20;;;;;;;;;;;;;;;10.96;41.12;100308.50;5059006;28;19999;-95
2021/04/15 12:19:51;;;;;;;;;;;;;;;12.00;39.91;100294.09;5055279;28;19924;-94
2021/04/15 12:22:17;;;;;;;;;;;;;;;11.72;43.94;100297.09;5056048;28;19921;-93
2021/04/15 12:24:50;;;;;;;;;;;;;;;12.51;39.60;100288.84;5073732;28;19939;-94
2021/04/15 12:27:23;;;;;;;;;;;;;;;13.89;37.94;100295.34;5063801;28;20001;-94
2021/04/15 12:30:02;;;;;;;;;;;;;;;12.95;43.04;100284.53;5060862;28;20012;-92
2021/04/15 12:32:32;;;;;;;;;;;;;;;11.67;41.54;100298.03;5081530;28;19928;-93
2021/04/15 12:35:16;;;;;;;;;;;;;;;10.66;41.71;100302.84;5064814;28;19925;-93
2021/04/15 12:37:42;;;;;;;;;;;;;;;9.74;41.75;100301.09;5059364;28;20490;-93
2021/04/15 12:40:18;;;;;;;;;;;;;;;9.80;46.38;100306.22;5078212;28;19954;-94
2021/04/15 12:42:43;;;;;;;;;;;;;;;11.42;41.31;100300.13;5076229;28;20039;-93
2021/04/15 12:45:12;;;;;;;;;;;;;;;10.30;45.94;100297.22;5058932;28;20014;-93
2021/04/15 12:47:38;;;;;;;;;;;;;;;9.25;44.04;100301.44;5058538;28;20379;-93
2021/04/15 12:50:04;;;;;;;;;;;;;;;9.12;42.66;100308.34;5082335;28;19921;-92
2021/04/15 12:52:31;;;;;;;;;;;;;;;8.83;45.52;100308.50;5067059;28;19959;-92
2021/04/15 12:54:57;;;;;;;;;;;;;;;9.05;44.25;100310.09;5085098;28;19928;-92
2021/04/15 12:57:23;;;;;;;;;;;;;;;9.50;45.79;100299.56;5069104;28;19932;-92
2021/04/15 12:59:49;;;;;;;;;;;;;;;9.76;46.43;100305.41;5064768;28;19960;-93
2021/04/15 13:02:22;;;;;;;;;;;;;;;10.12;45.58;100297.34;5053914;28;19924;-92
2021/04/15 13:04:54;;;;;;;;;;;;;;;10.38;47.67;100300.56;5085597;28;19920;-92
2021/04/15 13:07:27;;;;;;;;;;;;;;;11.04;48.06;100291.22;5070840;28;19927;-93
2021/04/15 13:09:54;;;;;;;;;;;;;;;11.62;53.41;100289.53;5105031;28;19924;-93